Time;durP1;ratioP1;P1;durP2;ratioP2;P2;SDS_P1;SDS_P2;PMS_P1;PMS_P2;Temp;Humidity;BMP_temperature;BMP_pressure;BME280_temperature;BME280_humidity;BME280_pressure;Samples;Min_cycle;Max_cycle;Signal;HPM_P1;HPM_P2
2021/11/27 00:00:14;;;;;;;12.67;9.97;;;4.50;99.90;;;;;;6326290;27;20468;-65
2021/11/27 00:03:18;;;;;;;13.53;9.90;;;4.50;99.90;;;;;;6322518;27;20570;-65
2021/11/27 00:06:22;;;;;;;10.83;9.83;;;4.60;99.90;;;;;;6326328;27;20480;-63
2021/11/27 00:09:25;;;;;;;11.47;10.30;;;4.60;99.90;;;;;;6326014;27;20478;-65
2021/11/27 00:12:30;;;;;;;10.97;9.80;;;4.60;99.90;;;;;;6326058;27;20480;-65
2021/11/27 00:15:34;;;;;;;10.70;9.63;;;4.60;99.90;;;;;;6325638;27;20456;-63
2021/11/27 00:18:38;;;;;;;10.10;9.10;;;4.60;99.90;;;;;;6325902;28;20444;-65
2021/11/27 00:21:43;;;;;;;11.73;10.53;;;4.70;99.90;;;;;;6300200;28;20445;-67
2021/11/27 00:24:47;;;;;;;12.43;9.93;;;4.70;99.90;;;;;;6300970;28;20418;-65
2021/11/27 00:27:52;;;;;;;11.57;10.13;;;4.70;99.90;;;;;;6344023;27;20466;-66
2021/11/27 00:30:59;;;;;;;11.30;10.20;;;4.70;99.90;;;;;;6351142;28;20470;-66
2021/11/27 00:34:03;;;;;;;13.47;11.17;;;4.70;99.90;;;;;;6350766;27;20474;-66
2021/11/27 00:37:06;;;;;;;10.30;9.30;;;4.70;99.90;;;;;;6350912;28;20474;-65
2021/11/27 00:40:12;;;;;;;10.13;9.13;;;4.70;99.90;;;;;;6350577;28;20493;-66
2021/11/27 00:43:19;;;;;;;12.90;10.60;;;4.70;99.90;;;;;;6350678;28;20831;-66
2021/11/27 00:46:23;;;;;;;9.40;8.60;;;4.80;99.90;;;;;;6345790;28;20809;-66
2021/11/27 00:49:26;;;;;;;10.03;8.67;;;4.80;99.90;;;;;;6324832;28;20487;-66
2021/11/27 00:52:30;;;;;;;9.20;8.40;;;4.80;99.90;;;;;;6324938;28;20460;-66
2021/11/27 00:55:34;;;;;;;9.53;8.63;;;4.80;99.90;;;;;;6321364;28;21073;-67
2021/11/27 00:58:39;;;;;;;11.00;9.43;;;4.90;99.90;;;;;;6324719;28;20460;-65
2021/11/27 01:01:43;;;;;;;11.17;10.07;;;4.90;99.90;;;;;;6324560;28;20474;-65
2021/11/27 01:04:46;;;;;;;17.00;12.40;;;4.80;99.90;;;;;;6315357;28;20476;-65
2021/11/27 01:07:50;;;;;;;11.90;10.63;;;4.80;99.90;;;;;;6328093;28;20878;-65
2021/11/27 01:10:57;;;;;;;15.33;11.87;;;4.70;99.90;;;;;;6325685;28;20959;-65
2021/11/27 01:14:06;;;;;;;13.97;11.67;;;4.70;99.90;;;;;;6323570;28;20959;-64
2021/11/27 01:17:10;;;;;;;13.53;11.87;;;4.70;99.90;;;;;;6324099;28;20557;-63
2021/11/27 01:20:17;;;;;;;16.20;12.00;;;4.60;99.90;;;;;;6323920;28;20556;-63
2021/11/27 01:23:20;;;;;;;13.63;11.70;;;4.50;99.90;;;;;;6324136;28;20470;-63
2021/11/27 01:26:23;;;;;;;12.80;11.60;;;4.40;99.90;;;;;;6320784;28;21104;-63
2021/11/27 01:29:29;;;;;;;14.30;12.20;;;4.40;99.90;;;;;;6325180;28;20480;-64
2021/11/27 01:32:32;;;;;;;13.40;11.00;;;4.40;99.90;;;;;;6324459;28;20475;-65
2021/11/27 01:35:36;;;;;;;12.90;11.60;;;4.40;99.90;;;;;;6323889;28;20464;-63
2021/11/27 01:38:39;;;;;;;13.67;12.20;;;4.40;99.90;;;;;;6323742;28;20476;-65
2021/11/27 01:41:43;;;;;;;13.27;11.63;;;4.40;99.90;;;;;;6324024;28;20467;-66
2021/11/27 01:44:48;;;;;;;11.53;10.33;;;4.50;99.90;;;;;;6324022;28;20464;-66
2021/11/27 01:47:58;;;;;;;16.37;11.57;;;4.60;99.90;;;;;;6321736;28;20948;-66
2021/11/27 01:51:05;;;;;;;13.60;12.30;;;4.60;99.90;;;;;;6324237;28;20864;-66
2021/11/27 01:54:11;;;;;;;13.27;11.97;;;4.60;99.90;;;;;;6324510;28;20468;-66
2021/11/27 01:57:15;;;;;;;14.37;13.00;;;4.60;99.90;;;;;;6324312;27;20533;-67
2021/11/27 02:00:23;;;;;;;14.80;12.60;;;4.60;99.90;;;;;;6324500;27;20800;-66
2021/11/27 02:03:26;;;;;;;13.90;12.50;;;4.60;99.90;;;;;;6324366;27;20815;-66
2021/11/27 02:06:30;;;;;;;13.20;11.77;;;4.60;99.90;;;;;;6324076;27;20481;-66
2021/11/27 02:09:36;;;;;;;13.37;12.00;;;4.60;99.90;;;;;;6320203;28;20479;-66
2021/11/27 02:12:40;;;;;;;14.97;11.70;;;4.60;99.90;;;;;;6329248;27;20467;-66
2021/11/27 02:15:45;;;;;;;14.07;12.57;;;4.60;99.90;;;;;;6329723;27;20466;-66
2021/11/27 02:18:48;;;;;;;12.80;10.23;;;4.50;99.90;;;;;;6328587;28;20451;-67
2021/11/27 02:21:53;;;;;;;12.60;11.30;;;4.50;99.90;;;;;;6329047;28;20448;-66
2021/11/27 02:24:56;;;;;;;11.63;10.47;;;4.50;99.90;;;;;;6329092;28;20535;-66
2021/11/27 02:28:00;;;;;;;15.30;11.87;;;4.60;99.90;;;;;;6352561;27;20459;-66
2021/11/27 02:31:05;;;;;;;13.70;11.97;;;4.60;99.90;;;;;;6354349;28;20469;-67
2021/11/27 02:34:09;;;;;;;12.27;10.63;;;4.60;99.90;;;;;;6354264;28;20550;-67
2021/11/27 02:37:14;;;;;;;12.47;11.17;;;4.60;99.90;;;;;;6353363;28;20479;-66
2021/11/27 02:40:18;;;;;;;15.63;12.90;;;4.60;99.90;;;;;;6353850;28;20455;-67
2021/11/27 02:43:21;;;;;;;20.60;12.90;;;4.60;99.90;;;;;;6353668;28;20467;-67
2021/11/27 02:46:24;;;;;;;15.20;11.60;;;4.60;99.90;;;;;;6353186;28;20966;-66
2021/11/27 02:49:27;;;;;;;14.93;12.43;;;4.60;99.90;;;;;;6353602;28;20482;-66
2021/11/27 02:52:32;;;;;;;18.23;13.17;;;4.50;99.90;;;;;;6339607;28;20788;-66
2021/11/27 02:55:35;;;;;;;16.00;12.60;;;4.50;99.90;;;;;;6328254;27;20485;-67
2021/11/27 02:58:39;;;;;;;13.93;12.50;;;4.50;99.90;;;;;;6328313;27;20479;-66
2021/11/27 03:01:44;;;;;;;14.47;12.77;;;4.50;99.90;;;;;;6327773;27;20780;-67
2021/11/27 03:04:49;;;;;;;14.70;11.87;;;4.50;99.90;;;;;;6328197;27;20479;-67
2021/11/27 03:07:54;;;;;;;12.63;10.70;;;4.50;99.90;;;;;;6327764;27;20483;-67
2021/11/27 03:10:58;;;;;;;13.63;11.10;;;4.40;99.90;;;;;;6327279;27;20476;-67
2021/11/27 03:14:02;;;;;;;11.93;10.73;;;4.50;99.90;;;;;;6322652;27;20473;-67
2021/11/27 03:17:06;;;;;;;13.67;11.57;;;4.50;99.90;;;;;;6327201;27;20956;-66
2021/11/27 03:20:12;;;;;;;14.07;12.00;;;4.50;99.90;;;;;;6327420;28;20465;-67
2021/11/27 03:23:16;;;;;;;15.73;11.87;;;4.40;99.90;;;;;;6327255;28;20468;-67
2021/11/27 03:26:20;;;;;;;12.63;11.37;;;4.40;99.90;;;;;;6336289;28;20471;-66
2021/11/27 03:29:23;;;;;;;14.17;12.10;;;4.30;99.90;;;;;;6352607;27;20475;-67
2021/11/27 03:32:26;;;;;;;12.83;11.60;;;4.30;99.90;;;;;;6352208;28;20467;-67
2021/11/27 03:35:29;;;;;;;14.37;12.03;;;4.30;99.90;;;;;;6352197;28;20479;-66
2021/11/27 03:38:35;;;;;;;17.43;12.53;;;4.30;99.90;;;;;;6352072;28;20951;-66
2021/11/27 03:41:38;;;;;;;14.03;12.30;;;4.40;99.90;;;;;;6352284;28;20469;-67
2021/11/27 03:44:42;;;;;;;15.07;12.70;;;4.40;99.90;;;;;;6352006;28;20474;-67
2021/11/27 03:47:57;;;;;;;18.63;12.73;;;4.40;99.90;;;;;;6351876;28;20475;-67
2021/11/27 03:51:05;;;;;;;12.40;11.03;;;4.30;99.90;;;;;;6351183;27;20480;-67
2021/11/27 03:54:11;;;;;;;14.90;12.37;;;4.30;99.90;;;;;;6326541;28;20478;-67
2021/11/27 03:57:14;;;;;;;14.60;11.63;;;4.20;99.90;;;;;;6326079;28;20476;-66
2021/11/27 04:00:17;;;;;;;15.60;12.13;;;4.20;99.90;;;;;;6326117;28;20543;-67
2021/11/27 04:03:21;;;;;;;16.47;12.13;;;4.30;99.90;;;;;;6326237;28;20747;-67
2021/11/27 04:06:25;;;;;;;12.67;11.43;;;4.30;99.90;;;;;;6326146;28;20489;-66
2021/11/27 04:09:29;;;;;;;11.67;10.43;;;4.30;99.90;;;;;;6325845;28;20507;-67
2021/11/27 04:12:33;;;;;;;15.30;12.57;;;4.40;99.90;;;;;;6325473;28;20483;-67
2021/11/27 04:15:36;;;;;;;12.43;10.80;;;4.40;99.90;;;;;;6318721;28;20468;-66
2021/11/27 04:18:40;;;;;;;14.23;11.83;;;4.40;99.90;;;;;;6326075;28;20477;-67
2021/11/27 04:21:43;;;;;;;11.20;9.30;;;4.40;99.90;;;;;;6300648;28;20448;-67
2021/11/27 04:24:47;;;;;;;12.27;11.00;;;4.50;99.90;;;;;;6300751;28;20446;-67
2021/11/27 04:27:51;;;;;;;11.83;10.63;;;4.50;99.90;;;;;;6300439;28;20461;-67
2021/11/27 04:30:54;;;;;;;12.03;10.83;;;4.50;99.90;;;;;;6300636;28;20928;-67
2021/11/27 04:34:02;;;;;;;13.30;9.43;;;4.50;99.90;;;;;;6299701;28;21067;-67
2021/11/27 04:37:10;;;;;;;12.80;11.10;;;4.50;99.90;;;;;;6300525;28;20465;-66
2021/11/27 04:40:15;;;;;;;11.20;10.10;;;4.50;99.90;;;;;;6300234;28;20480;-67
2021/11/27 04:43:19;;;;;;;12.03;9.80;;;4.40;99.90;;;;;;6299777;28;20472;-66
2021/11/27 04:46:23;;;;;;;10.57;9.23;;;4.50;99.90;;;;;;6300425;28;20503;-67
2021/11/27 04:49:26;;;;;;;10.00;8.97;;;4.50;99.90;;;;;;6299968;28;20464;-67
2021/11/27 04:52:29;;;;;;;9.63;8.60;;;4.50;99.90;;;;;;6314026;28;20475;-67
2021/11/27 04:55:34;;;;;;;9.90;8.90;;;4.50;99.90;;;;;;6324979;27;20966;-66
2021/11/27 04:58:37;;;;;;;9.27;8.37;;;4.50;99.90;;;;;;6325244;27;20461;-66
2021/11/27 05:01:41;;;;;;;9.00;8.10;;;4.50;99.90;;;;;;6325278;27;20471;-67
2021/11/27 05:04:44;;;;;;;9.73;8.73;;;4.50;99.90;;;;;;6324717;27;20980;-67
2021/11/27 05:07:47;;;;;;;8.30;7.50;;;4.40;99.90;;;;;;6324787;27;20963;-67
2021/11/27 05:10:52;;;;;;;9.70;8.70;;;4.30;99.90;;;;;;6324851;27;20502;-67
2021/11/27 05:13:55;;;;;;;10.50;8.17;;;4.30;99.90;;;;;;6324768;27;20472;-67
2021/11/27 05:16:58;;;;;;;8.50;7.30;;;4.30;99.90;;;;;;6324298;27;20472;-67
2021/11/27 05:20:01;;;;;;;7.77;6.97;;;4.30;99.90;;;;;;6319963;28;20477;-67
2021/11/27 05:23:06;;;;;;;9.40;7.80;;;4.30;99.90;;;;;;6324638;28;20479;-67
2021/11/27 05:26:10;;;;;;;8.07;7.13;;;4.30;99.90;;;;;;6332192;28;20470;-66
2021/11/27 05:29:13;;;;;;;9.17;7.80;;;4.30;99.90;;;;;;6349745;28;20541;-66
2021/11/27 05:32:27;;;;;;;8.43;7.50;;;4.30;99.90;;;;;;6349694;28;20483;-66
2021/11/27 05:35:30;;;;;;;8.27;7.57;;;4.20;99.90;;;;;;6349738;28;20478;-66
2021/11/27 05:38:34;;;;;;;8.33;7.40;;;4.20;99.90;;;;;;6349451;28;20471;-66
2021/11/27 05:41:38;;;;;;;7.73;7.00;;;4.20;99.90;;;;;;6349715;28;20489;-66
2021/11/27 05:44:42;;;;;;;10.27;9.27;;;4.20;99.90;;;;;;6351112;28;20532;-67
2021/11/27 05:47:45;;;;;;;8.83;7.90;;;4.20;99.90;;;;;;6354893;28;20475;-67
2021/11/27 05:50:49;;;;;;;7.40;6.70;;;4.20;99.90;;;;;;6354970;28;20471;-67
2021/11/27 05:53:52;;;;;;;7.73;6.97;;;4.30;99.90;;;;;;6329455;28;20472;-67
2021/11/27 05:56:56;;;;;;;8.73;7.73;;;4.30;99.90;;;;;;6329416;27;20472;-66
2021/11/27 06:00:00;;;;;;;9.90;7.70;;;4.30;99.90;;;;;;6329190;27;20472;-66
2021/11/27 06:03:03;;;;;;;8.73;7.90;;;4.30;99.90;;;;;;6329180;27;20472;-67
2021/11/27 06:06:06;;;;;;;8.60;7.70;;;4.30;99.90;;;;;;6329235;27;20936;-67
2021/11/27 06:09:09;;;;;;;10.77;8.30;;;4.30;99.90;;;;;;6328909;27;20468;-67
2021/11/27 06:12:14;;;;;;;7.43;6.30;;;4.30;99.90;;;;;;6329157;27;20773;-67
2021/11/27 06:15:17;;;;;;;8.30;6.83;;;4.40;99.90;;;;;;6328474;27;20471;-67
2021/11/27 06:18:20;;;;;;;7.67;6.93;;;4.40;99.90;;;;;;6328997;27;20537;-67
2021/11/27 06:21:23;;;;;;;7.20;6.53;;;4.40;99.90;;;;;;6328498;28;20476;-67
2021/11/27 06:24:27;;;;;;;7.10;6.50;;;4.40;99.90;;;;;;6328551;28;20551;-67
2021/11/27 06:27:31;;;;;;;6.67;6.07;;;4.40;99.90;;;;;;6337964;28;20479;-68
2021/11/27 06:30:35;;;;;;;7.00;6.30;;;4.50;99.90;;;;;;6354059;27;20467;-67
2021/11/27 06:33:40;;;;;;;7.07;6.37;;;4.50;99.90;;;;;;6353353;27;21005;-68
2021/11/27 06:36:43;;;;;;;7.63;6.73;;;4.50;99.90;;;;;;6354353;28;20480;-67
2021/11/27 06:39:47;;;;;;;7.07;6.47;;;4.50;99.90;;;;;;6352049;28;20486;-67
2021/11/27 06:42:52;;;;;;;6.70;6.10;;;4.50;99.90;;;;;;6351555;28;20773;-67
2021/11/27 06:45:55;;;;;;;6.33;5.70;;;4.40;99.90;;;;;;6351287;27;20456;-66
2021/11/27 06:48:58;;;;;;;6.90;6.03;;;4.40;99.90;;;;;;6351835;28;20466;-66
2021/11/27 06:52:01;;;;;;;5.67;5.13;;;4.30;99.90;;;;;;6341765;28;20483;-67
2021/11/27 06:55:05;;;;;;;5.47;4.90;;;4.40;99.90;;;;;;6326268;27;20475;-67
2021/11/27 06:58:10;;;;;;;5.30;4.90;;;4.40;99.90;;;;;;6326798;27;20471;-67
2021/11/27 07:01:13;;;;;;;6.97;5.60;;;4.40;99.90;;;;;;6326774;27;20483;-67
2021/11/27 07:04:18;;;;;;;6.23;5.70;;;4.40;99.90;;;;;;6326695;27;20475;-67
2021/11/27 07:07:21;;;;;;;5.20;4.80;;;4.50;99.90;;;;;;6325713;27;20983;-67
2021/11/27 07:10:24;;;;;;;4.27;3.97;;;4.50;99.90;;;;;;6326362;27;20468;-67
2021/11/27 07:13:28;;;;;;;4.13;3.83;;;4.50;99.90;;;;;;6325891;27;20963;-67
2021/11/27 07:16:32;;;;;;;4.57;4.20;;;4.50;99.90;;;;;;6326035;27;20468;-67
2021/11/27 07:19:38;;;;;;;4.80;4.50;;;4.50;99.90;;;;;;6325456;28;20468;-67
2021/11/27 07:22:41;;;;;;;4.30;4.00;;;4.50;99.90;;;;;;6326323;28;20471;-67
2021/11/27 07:25:46;;;;;;;5.80;5.40;;;4.60;99.90;;;;;;6330394;28;20532;-67
2021/11/27 07:28:51;;;;;;;4.60;4.20;;;4.60;99.90;;;;;;6342622;28;20470;-67
2021/11/27 07:31:55;;;;;;;4.30;4.00;;;4.60;99.90;;;;;;6351666;27;20490;-67
2021/11/27 07:34:58;;;;;;;4.30;3.90;;;4.60;99.90;;;;;;6351443;28;20460;-67
2021/11/27 07:38:01;;;;;;;4.23;3.93;;;4.60;99.90;;;;;;6311676;27;1118341;-67
2021/11/27 07:41:06;;;;;;;4.13;3.73;;;4.70;99.90;;;;;;6352406;28;20669;-68
2021/11/27 07:44:11;;;;;;;4.33;4.00;;;4.80;99.90;;;;;;6352651;27;20468;-67
2021/11/27 07:47:14;;;;;;;4.40;4.10;;;4.80;99.90;;;;;;6352044;28;20478;-67
2021/11/27 07:50:17;;;;;;;5.60;5.10;;;4.90;99.90;;;;;;6352093;27;20978;-67
2021/11/27 07:53:21;;;;;;;5.70;4.80;;;4.90;99.90;;;;;;6330820;28;20476;-67
2021/11/27 07:56:24;;;;;;;4.90;4.50;;;4.80;99.90;;;;;;6326499;27;20475;-66
2021/11/27 07:59:33;;;;;;;3.93;3.63;;;4.80;99.90;;;;;;6327619;27;20487;-67
2021/11/27 08:02:37;;;;;;;4.23;3.90;;;4.90;99.90;;;;;;6327469;27;20471;-67
2021/11/27 08:05:42;;;;;;;3.50;3.20;;;4.90;99.90;;;;;;6327480;27;20468;-66
2021/11/27 08:08:46;;;;;;;4.23;3.93;;;4.80;99.90;;;;;;6325637;27;20807;-64
2021/11/27 08:11:49;;;;;;;4.30;4.00;;;4.70;99.90;;;;;;6325835;27;20955;-64
2021/11/27 08:14:53;;;;;;;4.53;4.13;;;4.70;99.90;;;;;;6326262;27;20464;-64
2021/11/27 08:17:57;;;;;;;5.00;4.60;;;4.80;99.90;;;;;;6326127;27;20469;-66
2021/11/27 08:21:00;;;;;;;4.80;4.40;;;4.80;99.90;;;;;;6325732;28;20479;-67
2021/11/27 08:24:24;;;;;;;5.00;4.60;;;4.80;99.90;;;;;;6325527;28;20471;-67
2021/11/27 08:27:28;;;;;;;5.50;5.00;;;4.90;99.90;;;;;;6284192;22;20486;-67
2021/11/27 08:30:32;;;;;;;5.30;4.90;;;4.90;99.90;;;;;;6269531;28;20493;-67
2021/11/27 08:33:36;;;;;;;4.80;4.43;;;4.90;99.90;;;;;;6238694;28;20479;-65
2021/11/27 08:36:39;;;;;;;4.50;4.10;;;5.00;99.90;;;;;;6266074;28;20454;-66
2021/11/27 08:39:42;;;;;;;4.43;4.03;;;5.00;99.90;;;;;;6266377;28;20450;-66
2021/11/27 08:42:46;;;;;;;5.10;4.70;;;5.00;99.90;;;;;;6258941;28;20454;-67
2021/11/27 08:45:50;;;;;;;4.10;3.80;;;4.90;99.90;;;;;;6262425;28;20475;-67
2021/11/27 08:48:54;;;;;;;4.00;3.70;;;4.80;99.90;;;;;;6288304;28;20983;-64
2021/11/27 08:51:57;;;;;;;4.67;4.37;;;4.90;99.90;;;;;;6282282;28;21136;-65
2021/11/27 08:55:00;;;;;;;5.00;4.60;;;4.70;99.90;;;;;;6284101;28;20472;-65
2021/11/27 08:58:04;;;;;;;4.70;4.40;;;4.80;99.90;;;;;;6298144;28;20804;-66
2021/11/27 09:01:12;;;;;;;5.30;4.80;;;4.90;99.90;;;;;;6296796;28;20468;-65
2021/11/27 09:04:15;;;;;;;6.47;5.80;;;4.90;99.90;;;;;;6293509;28;20954;-65
2021/11/27 09:07:18;;;;;;;6.50;5.50;;;4.90;99.90;;;;;;6274882;28;20466;-65
2021/11/27 09:10:23;;;;;;;5.03;4.57;;;5.00;99.90;;;;;;6274777;28;20789;-65
2021/11/27 09:13:26;;;;;;;6.20;5.70;;;5.00;99.90;;;;;;6274882;28;20477;-65
2021/11/27 09:16:31;;;;;;;6.57;6.07;;;4.80;99.90;;;;;;6274848;28;21073;-65
2021/11/27 09:19:36;;;;;;;5.63;5.23;;;4.80;99.90;;;;;;6266684;28;20955;-66
2021/11/27 09:22:40;;;;;;;7.03;6.37;;;4.70;99.90;;;;;;6250190;28;20528;-66
2021/11/27 09:25:44;;;;;;;7.00;6.33;;;4.80;99.90;;;;;;6253125;28;20857;-66
2021/11/27 09:28:47;;;;;;;7.30;6.17;;;4.80;99.90;;;;;;6274914;28;20474;-65
2021/11/27 09:31:51;;;;;;;6.97;6.47;;;4.90;99.90;;;;;;6274452;28;20477;-66
2021/11/27 09:34:54;;;;;;;6.37;5.73;;;4.90;99.90;;;;;;6274754;28;20474;-65
2021/11/27 09:37:58;;;;;;;6.73;6.13;;;4.90;99.90;;;;;;6264608;28;20552;-65
2021/11/27 09:41:17;;;;;;;6.47;5.87;;;4.90;99.90;;;;;;6286400;28;20662;-65
2021/11/27 09:44:20;;;;;;;7.50;6.40;;;5.00;99.90;;;;;;6299393;28;20465;-66
2021/11/27 09:47:25;;;;;;;7.23;6.63;;;5.00;99.90;;;;;;6299162;28;20492;-65
2021/11/27 09:50:28;;;;;;;6.60;6.00;;;5.00;99.90;;;;;;6299176;28;20469;-66
2021/11/27 09:53:32;;;;;;;7.57;6.87;;;5.10;99.90;;;;;;6276878;28;20474;-66
2021/11/27 09:56:35;;;;;;;8.83;7.20;;;5.10;99.90;;;;;;6273417;28;20474;-65
2021/11/27 09:59:40;;;;;;;8.10;7.30;;;5.20;99.90;;;;;;6273947;28;20782;-66
2021/11/27 10:02:46;;;;;;;6.07;5.57;;;5.30;99.90;;;;;;6273607;28;20478;-65
2021/11/27 10:05:53;;;;;;;6.67;6.07;;;5.20;99.90;;;;;;6274210;28;20470;-64
2021/11/27 10:08:56;;;;;;;7.50;6.80;;;5.20;99.90;;;;;;6273995;28;20473;-64
2021/11/27 10:12:00;;;;;;;7.03;6.43;;;5.30;99.90;;;;;;6274067;28;20462;-66
2021/11/27 10:15:04;;;;;;;8.07;7.37;;;5.40;99.90;;;;;;6274257;28;20820;-67
2021/11/27 10:18:16;;;;;;;8.40;7.60;;;5.40;99.90;;;;;;6274995;28;20462;-66
2021/11/27 10:21:21;;;;;;;7.87;7.10;;;5.40;99.90;;;;;;6275932;28;20477;-67
2021/11/27 10:24:27;;;;;;;7.47;6.77;;;5.40;99.90;;;;;;6275223;28;20805;-66
2021/11/27 10:27:30;;;;;;;8.20;7.50;;;5.50;99.90;;;;;;6273959;28;20970;-66
2021/11/27 10:30:43;;;;;;;7.53;6.87;;;5.50;99.90;;;;;;6274110;28;20470;-65
2021/11/27 10:34:00;;;;;;;7.80;6.87;;;5.50;99.90;;;;;;6278293;28;20477;-65
2021/11/27 10:37:04;;;;;;;6.93;6.23;;;5.60;99.90;;;;;;6278374;28;20470;-65
2021/11/27 10:40:09;;;;;;;8.40;7.70;;;5.60;99.90;;;;;;6273278;28;20918;-65
2021/11/27 10:43:12;;;;;;;9.20;8.40;;;5.70;99.90;;;;;;6277854;28;20488;-65
2021/11/27 10:46:26;;;;;;;9.13;8.23;;;5.70;99.90;;;;;;6277618;28;20927;-65
2021/11/27 10:49:31;;;;;;;8.50;7.70;;;5.60;99.90;;;;;;6277707;28;20485;-65
2021/11/27 10:52:37;;;;;;;10.97;8.27;;;5.60;99.90;;;;;;6263851;28;20489;-65
2021/11/27 10:55:41;;;;;;;8.60;7.80;;;5.60;99.90;;;;;;6267462;28;20477;-68
2021/11/27 10:58:59;;;;;;;7.40;6.70;;;5.60;99.90;;;;;;6277437;28;20489;-67
2021/11/27 11:02:05;;;;;;;8.70;7.73;;;5.50;99.90;;;;;;6277822;28;20466;-67
2021/11/27 11:05:14;;;;;;;7.70;6.90;;;5.50;99.90;;;;;;6277597;28;20532;-67
2021/11/27 11:08:17;;;;;;;6.70;6.10;;;5.60;99.90;;;;;;6278079;28;20488;-64
2021/11/27 11:11:27;;;;;;;8.03;7.23;;;5.60;99.90;;;;;;6278624;28;20470;-65
2021/11/27 11:14:32;;;;;;;7.30;6.60;;;5.60;99.90;;;;;;6277058;28;20501;-67
2021/11/27 11:17:35;;;;;;;7.53;6.83;;;5.60;99.90;;;;;;6277093;28;20470;-67
2021/11/27 11:20:44;;;;;;;8.23;6.43;;;5.60;99.90;;;;;;6277499;28;20469;-65
2021/11/27 11:23:49;;;;;;;7.00;6.40;;;5.60;99.90;;;;;;6277623;28;20485;-67
2021/11/27 11:27:12;;;;;;;6.90;6.17;;;5.70;99.90;;;;;;6276694;28;20488;-67
2021/11/27 11:30:17;;;;;;;6.20;5.70;;;5.80;99.90;;;;;;6277163;28;20478;-66
2021/11/27 11:33:21;;;;;;;6.83;6.20;;;6.00;99.90;;;;;;6277810;28;20958;-66
2021/11/27 11:36:26;;;;;;;8.03;7.07;;;6.10;99.90;;;;;;6276737;28;20482;-67
2021/11/27 11:39:29;;;;;;;8.20;7.50;;;6.20;99.90;;;;;;6276658;28;20478;-67
2021/11/27 11:42:33;;;;;;;6.50;5.90;;;6.20;99.90;;;;;;6275510;28;20984;-67
2021/11/27 11:45:37;;;;;;;6.30;5.80;;;6.40;99.90;;;;;;6271987;28;20548;-67
2021/11/27 11:48:48;;;;;;;5.57;5.07;;;6.50;99.90;;;;;;6251883;28;20776;-68
2021/11/27 11:52:03;;;;;;;4.83;4.43;;;6.60;99.90;;;;;;6276531;28;20516;-67
2021/11/27 11:55:11;;;;;;;4.10;3.67;;;6.70;99.90;;;;;;6273423;28;20478;-68
2021/11/27 11:58:25;;;;;;;4.00;3.70;;;6.70;99.90;;;;;;6274590;28;20806;-67
2021/11/27 12:01:28;;;;;;;5.67;5.20;;;6.70;99.90;;;;;;6274947;28;20478;-67
2021/11/27 12:04:32;;;;;;;4.50;4.10;;;6.70;99.90;;;;;;6277689;28;20472;-67
2021/11/27 12:07:58;;;;;;;4.23;3.93;;;6.80;99.90;;;;;;6275663;28;20581;-68
2021/11/27 12:11:09;;;;;;;4.37;3.97;;;6.90;99.90;;;;;;6274191;28;20923;-67
2021/11/27 12:14:49;;;;;;;5.40;4.70;;;6.90;99.90;;;;;;6274798;28;20474;-67
2021/11/27 12:18:07;;;;;;;5.33;4.50;;;6.90;99.90;;;;;;6274340;28;20478;-68
2021/11/27 12:21:14;;;;;;;5.20;4.70;;;6.90;99.90;;;;;;6274478;28;20820;-67
2021/11/27 12:24:24;;;;;;;4.03;3.73;;;7.00;99.90;;;;;;6274248;28;20481;-67
2021/11/27 12:27:28;;;;;;;4.50;4.20;;;7.10;99.90;;;;;;6275678;28;20498;-67
2021/11/27 12:30:56;;;;;;;4.47;4.07;;;7.00;99.90;;;;;;6275781;28;20485;-67
2021/11/27 12:34:00;;;;;;;4.40;4.00;;;7.00;99.90;;;;;;6275963;28;20449;-67
2021/11/27 12:37:22;;;;;;;7.27;5.40;;;7.10;99.90;;;;;;6276075;28;20474;-68
2021/11/27 12:40:38;;;;;;;3.93;3.63;;;7.20;99.90;;;;;;6275688;28;20485;-68
2021/11/27 12:44:01;;;;;;;4.40;4.00;;;7.40;99.90;;;;;;6275499;28;20470;-68
2021/11/27 12:47:32;;;;;;;5.07;4.67;;;7.60;99.90;;;;;;6274901;28;20473;-67
2021/11/27 12:50:36;;;;;;;4.37;3.97;;;7.90;99.90;;;;;;6270687;28;20561;-68
2021/11/27 12:53:39;;;;;;;5.03;4.50;;;8.00;99.90;;;;;;6274755;28;20941;-67
2021/11/27 12:57:15;;;;;;;4.10;3.80;;;8.20;99.90;;;;;;6274743;28;20781;-67
2021/11/27 13:00:22;;;;;;;5.43;4.97;;;8.30;99.90;;;;;;6271745;28;20459;-68
2021/11/27 13:03:26;;;;;;;4.73;4.27;;;8.40;99.40;;;;;;6274874;28;20477;-68
2021/11/27 13:06:29;;;;;;;5.40;4.90;;;8.50;99.20;;;;;;6274885;28;20473;-67
2021/11/27 13:09:36;;;;;;;5.03;4.57;;;8.50;98.10;;;;;;6274604;28;20480;-67
2021/11/27 13:12:56;;;;;;;5.03;4.73;;;8.20;98.30;;;;;;6275010;28;20457;-68
2021/11/27 13:16:07;;;;;;;5.77;5.30;;;7.90;98.90;;;;;;6274605;28;21017;-68
2021/11/27 13:19:11;;;;;;;5.17;4.70;;;7.80;99.40;;;;;;6274543;28;20466;-68
2021/11/27 13:22:17;;;;;;;4.37;4.07;;;7.70;99.60;;;;;;6274405;28;20481;-67
2021/11/27 13:25:20;;;;;;;4.27;3.87;;;7.50;99.70;;;;;;6273835;28;20466;-67
2021/11/27 13:28:28;;;;;;;4.13;3.83;;;7.40;99.60;;;;;;6274747;28;20485;-67
2021/11/27 13:31:34;;;;;;;4.57;4.17;;;7.20;99.60;;;;;;6274552;28;21005;-68
2021/11/27 13:34:37;;;;;;;4.63;4.27;;;7.00;99.90;;;;;;6274815;28;20470;-67
2021/11/27 13:37:47;;;;;;;8.27;7.37;;;6.90;99.90;;;;;;6274216;28;20605;-67
2021/11/27 13:40:50;;;;;;;9.43;7.80;;;6.70;99.90;;;;;;6274531;28;20466;-68
2021/11/27 13:43:58;;;;;;;10.80;8.40;;;6.30;99.90;;;;;;6274339;28;20965;-67
2021/11/27 13:47:02;;;;;;;11.40;10.20;;;5.90;99.90;;;;;;6274454;28;20489;-67
2021/11/27 13:50:07;;;;;;;18.20;13.23;;;5.60;99.90;;;;;;6270269;28;20477;-67
2021/11/27 13:53:12;;;;;;;9.67;7.60;;;5.50;99.90;;;;;;6274604;28;20462;-67
2021/11/27 13:56:15;;;;;;;8.23;7.00;;;5.50;99.90;;;;;;6274332;28;20551;-67
2021/11/27 13:59:27;;;;;;;7.40;6.73;;;5.50;99.90;;;;;;6274705;28;20474;-67
2021/11/27 14:02:37;;;;;;;7.40;6.60;;;5.50;99.90;;;;;;6274234;28;20478;-67
2021/11/27 14:05:43;;;;;;;6.83;6.10;;;5.50;99.90;;;;;;6275030;28;20758;-67
2021/11/27 14:08:54;;;;;;;6.30;5.80;;;5.50;99.90;;;;;;6279176;28;20474;-67
2021/11/27 14:11:59;;;;;;;5.80;5.20;;;5.60;99.90;;;;;;6279247;28;20527;-67
2021/11/27 14:15:07;;;;;;;5.97;5.37;;;5.70;99.90;;;;;;6279090;28;21026;-67
2021/11/27 14:18:13;;;;;;;5.93;5.43;;;5.80;99.90;;;;;;6279113;28;20481;-67
2021/11/27 14:21:18;;;;;;;5.53;5.13;;;5.80;99.90;;;;;;6278804;28;20470;-67
2021/11/27 14:24:25;;;;;;;6.03;5.50;;;5.90;99.90;;;;;;6278954;28;20814;-67
2021/11/27 14:27:28;;;;;;;5.87;5.37;;;5.70;99.90;;;;;;6278397;28;20481;-67
2021/11/27 14:30:36;;;;;;;5.77;5.17;;;5.70;99.90;;;;;;6278591;28;20474;-67
2021/11/27 14:33:40;;;;;;;5.80;5.30;;;5.60;99.90;;;;;;6278639;28;20508;-67
2021/11/27 14:36:46;;;;;;;5.73;5.17;;;5.50;99.90;;;;;;6278687;28;20497;-67
2021/11/27 14:39:56;;;;;;;6.87;6.20;;;5.50;99.90;;;;;;6278584;28;20434;-67
2021/11/27 14:43:09;;;;;;;7.10;6.50;;;5.50;99.90;;;;;;6278689;28;20465;-67
2021/11/27 14:46:33;;;;;;;6.30;5.70;;;5.40;99.90;;;;;;6277919;28;20470;-67
2021/11/27 14:49:38;;;;;;;6.23;5.63;;;5.20;99.90;;;;;;6278459;28;20490;-68
2021/11/27 14:52:42;;;;;;;6.97;6.37;;;5.10;99.90;;;;;;6274066;28;20457;-67
2021/11/27 14:55:45;;;;;;;8.00;7.20;;;5.10;99.90;;;;;;6277525;28;20474;-67
2021/11/27 14:58:48;;;;;;;7.40;6.17;;;5.10;99.90;;;;;;6276771;28;20466;-67
2021/11/27 15:01:52;;;;;;;8.17;7.37;;;5.00;99.90;;;;;;6277614;28;20823;-67
2021/11/27 15:04:57;;;;;;;7.10;6.60;;;4.90;99.90;;;;;;6277915;28;20462;-67
2021/11/27 15:08:00;;;;;;;8.20;7.50;;;4.80;99.90;;;;;;6277465;28;20477;-67
2021/11/27 15:11:04;;;;;;;8.13;7.43;;;4.80;99.90;;;;;;6277704;28;20474;-67
2021/11/27 15:14:18;;;;;;;12.60;8.70;;;4.80;99.90;;;;;;6277554;28;20950;-67
2021/11/27 15:17:23;;;;;;;9.83;8.73;;;4.70;99.90;;;;;;6276944;28;20470;-67
2021/11/27 15:20:26;;;;;;;10.17;9.13;;;4.70;99.90;;;;;;6277370;28;20474;-67
2021/11/27 15:23:29;;;;;;;10.67;9.57;;;4.70;99.90;;;;;;6277231;28;20478;-67
2021/11/27 15:26:34;;;;;;;9.80;8.70;;;4.70;99.90;;;;;;6276402;28;20804;-67
2021/11/27 15:29:37;;;;;;;12.90;11.60;;;4.70;99.90;;;;;;6277199;28;20477;-68
2021/11/27 15:32:42;;;;;;;12.27;11.07;;;4.50;99.90;;;;;;6277657;28;20474;-68
2021/11/27 15:35:45;;;;;;;11.97;10.47;;;4.40;99.90;;;;;;6277407;28;20497;-67
2021/11/27 15:38:48;;;;;;;13.47;11.73;;;4.40;99.90;;;;;;6276658;28;20551;-67
2021/11/27 15:41:52;;;;;;;11.83;10.37;;;4.50;99.90;;;;;;6276394;28;20470;-67
2021/11/27 15:44:55;;;;;;;13.27;11.23;;;4.50;99.90;;;;;;6277298;28;20462;-66
2021/11/27 15:47:59;;;;;;;13.43;12.03;;;4.30;99.90;;;;;;6280297;28;20473;-65
2021/11/27 15:51:03;;;;;;;11.37;10.03;;;4.30;99.90;;;;;;6276136;28;20481;-65
2021/11/27 15:54:07;;;;;;;13.53;12.17;;;4.30;99.90;;;;;;6276307;28;20470;-65
2021/11/27 15:57:11;;;;;;;11.53;10.37;;;4.30;99.90;;;;;;6275895;28;20989;-64
2021/11/27 16:00:15;;;;;;;11.90;10.60;;;4.40;99.90;;;;;;6276386;28;20481;-65
2021/11/27 16:03:19;;;;;;;13.87;12.40;;;4.40;99.90;;;;;;6276089;28;20469;-65
2021/11/27 16:06:22;;;;;;;11.50;10.37;;;4.40;99.90;;;;;;6276368;28;20937;-65
2021/11/27 16:09:26;;;;;;;13.67;12.23;;;4.30;99.90;;;;;;6276535;28;20474;-65